Time;durP1;ratioP1;P1;durP2;ratioP2;P2;SDS_P1;SDS_P2;PMS_P1;PMS_P2;Temp;Humidity;BMP_temperature;BMP_pressure;BME280_temperature;BME280_humidity;BME280_pressure;Samples;Min_cycle;Max_cycle;Signal;HPM_P1;HPM_P2
2022/09/30 00:00:55;;;;;;;1.2;1.1;;;;;;;9.62;93.91699;928.0601;;;;
2022/09/30 00:03:20;;;;;;;1.3;1.2;;;;;;;9.62;93.75684;928.0592;;;;
2022/09/30 00:05:46;;;;;;;1.3;1.2;;;;;;;9.67;93.75586;928.0233;;;;
2022/09/30 00:08:12;;;;;;;2.8;1.6;;;;;;;9.64;94.01172;927.9758;;;;
2022/09/30 00:10:40;;;;;;;2.4;1.5;;;;;;;9.62;93.87109;927.9941;;;;
2022/09/30 00:13:05;;;;;;;2;1.8;;;;;;;9.63;93.77051;927.9083;;;;
2022/09/30 00:15:31;;;;;;;2;1.8;;;;;;;9.67;94.04004;927.9661;;;;
2022/09/30 00:17:56;;;;;;;1.9;1.6;;;;;;;9.6;95.00391;927.8993;;;;
2022/09/30 00:20:21;;;;;;;1.4;1.3;;;;;;;9.56;95.06641;927.8812;;;;
2022/09/30 00:22:46;;;;;;;1.5;1.4;;;;;;;9.57;94.52148;927.8342;;;;
2022/09/30 00:25:16;;;;;;;1.9;1.7;;;;;;;9.58;94.30762;927.8716;;;;
2022/09/30 00:27:45;;;;;;;2.4;1.7;;;;;;;9.64;94.41016;927.9542;;;;
2022/09/30 00:30:10;;;;;;;2.5;1.6;;;;;;;9.64;94.50195;927.9774;;;;
2022/09/30 00:32:38;;;;;;;2.4;1.3;;;;;;;9.62;94.21094;928.0108;;;;
2022/09/30 00:35:14;;;;;;;1.6;1.4;;;;;;;9.68;94.04395;927.9906;;;;
2022/09/30 00:37:39;;;;;;;1.6;1.5;;;;;;;9.65;93.62598;928.0536;;;;
2022/09/30 00:40:14;;;;;;;1.8;1.7;;;;;;;9.58;94.14551;928.0837;;;;
2022/09/30 00:42:39;;;;;;;2;1.8;;;;;;;9.6;94.50488;928.0733;;;;
2022/09/30 00:45:12;;;;;;;1.7;1.6;;;;;;;9.63;94.40625;927.9933;;;;
2022/09/30 00:47:36;;;;;;;1.8;1.6;;;;;;;9.59;94.41211;928.0941;;;;
2022/09/30 00:50:01;;;;;;;1.6;1.5;;;;;;;9.53;94.47754;928.0386;;;;
2022/09/30 00:52:33;;;;;;;1.6;1.5;;;;;;;9.5;94.72266;928.057;;;;
2022/09/30 00:54:59;;;;;;;1.5;1.4;;;;;;;9.39;94.91309;927.9601;;;;
2022/09/30 00:57:25;;;;;;;1.8;1.4;;;;;;;9.23;95.88086;928.0377;;;;
2022/09/30 00:59:50;;;;;;;2.6;1.4;;;;;;;9.29;96.16797;928.1287;;;;
2022/09/30 01:02:16;;;;;;;1.1;1.1;;;;;;;9.38;95.89258;928.1842;;;;
2022/09/30 01:04:41;;;;;;;1.3;1.2;;;;;;;9.32;95.7627;928.1978;;;;
2022/09/30 01:07:06;;;;;;;1.4;1.3;;;;;;;9.23;96.1084;928.1781;;;;
2022/09/30 01:09:31;;;;;;;2;1.3;;;;;;;9.19;96.29199;928.2058;;;;
2022/09/30 01:11:56;;;;;;;1.3;1.2;;;;;;;9.29;95.91602;928.1646;;;;
2022/09/30 01:14:21;;;;;;;2.5;1.4;;;;;;;9.36;95.62402;928.197;;;;
2022/09/30 01:16:51;;;;;;;1.9;1.4;;;;;;;9.37;95.47656;928.2239;;;;
2022/09/30 01:19:16;;;;;;;1.6;1.5;;;;;;;9.4;95.24512;928.2167;;;;
2022/09/30 01:21:44;;;;;;;1.5;1.4;;;;;;;9.37;95.28711;928.2088;;;;
2022/09/30 01:24:09;;;;;;;1.8;1.7;;;;;;;9.37;95.41016;928.1827;;;;
2022/09/30 01:26:34;;;;;;;2.3;1.8;;;;;;;9.41;95.52246;928.1658;;;;
2022/09/30 01:29:00;;;;;;;1.7;1.6;;;;;;;9.46;95.69238;928.1445;;;;
2022/09/30 01:31:26;;;;;;;1.8;1.3;;;;;;;9.37;95.63965;928.1437;;;;
2022/09/30 01:33:52;;;;;;;1.4;1.3;;;;;;;9.32;95.49121;928.228;;;;
2022/09/30 01:36:17;;;;;;;1.9;1.5;;;;;;;9.39;95.07227;928.2255;;;;
2022/09/30 01:38:42;;;;;;;1.6;1.5;;;;;;;9.42;94.78418;928.2019;;;;
2022/09/30 01:41:08;;;;;;;1.7;1.6;;;;;;;9.46;94.65527;928.2844;;;;
2022/09/30 01:43:33;;;;;;;2.3;2.1;;;;;;;9.47;94.79199;928.2709;;;;
2022/09/30 01:45:59;;;;;;;2.1;1.9;;;;;;;9.53;94.44336;928.3247;;;;
2022/09/30 01:48:23;;;;;;;2.1;1.9;;;;;;;9.55;94.32422;928.3365;;;;
2022/09/30 01:50:48;;;;;;;1.9;1.7;;;;;;;9.56;94.44922;928.2578;;;;
2022/09/30 01:53:13;;;;;;;1.7;1.6;;;;;;;9.54;94.40039;928.3303;;;;
2022/09/30 01:55:39;;;;;;;1.6;1.5;;;;;;;9.55;94.51758;928.3508;;;;
2022/09/30 01:58:04;;;;;;;1.6;1.5;;;;;;;9.55;94.44727;928.3644;;;;
2022/09/30 02:00:29;;;;;;;1.9;1.4;;;;;;;9.57;94.39453;928.3245;;;;
2022/09/30 02:02:54;;;;;;;1.7;1.6;;;;;;;9.59;94.32031;928.2378;;;;
2022/09/30 02:05:19;;;;;;;1.5;1.4;;;;;;;9.56;94.14355;928.4359;;;;
2022/09/30 02:07:44;;;;;;;1.6;1.3;;;;;;;9.57;93.98438;928.4692;;;;
2022/09/30 02:10:09;;;;;;;1.4;1.3;;;;;;;9.57;94.18945;928.4445;;;;
2022/09/30 02:12:34;;;;;;;1.5;1.4;;;;;;;9.56;94.2334;928.4398;;;;
2022/09/30 02:14:59;;;;;;;1.4;1.3;;;;;;;9.5;94.3584;928.4011;;;;
2022/09/30 02:17:25;;;;;;;1.5;1.4;;;;;;;9.51;94.36035;928.316;;;;
2022/09/30 02:19:50;;;;;;;2.3;1.4;;;;;;;9.56;94.21191;928.2913;;;;
2022/09/30 02:22:15;;;;;;;1.7;1.3;;;;;;;9.56;94.17773;928.2698;;;;
2022/09/30 02:24:42;;;;;;;1.5;1.4;;;;;;;9.59;94.26367;928.2991;;;;
2022/09/30 02:27:05;;;;;;;1.6;1.5;;;;;;;9.63;94.20313;928.3644;;;;
2022/09/30 02:29:30;;;;;;;1.5;1.4;;;;;;;9.6;94.50488;928.384;;;;
2022/09/30 02:31:56;;;;;;;2;1.8;;;;;;;9.59;94.58301;928.423;;;;
2022/09/30 02:34:21;;;;;;;1.8;1.5;;;;;;;9.55;94.83496;928.4367;;;;
2022/09/30 02:36:46;;;;;;;2;1.8;;;;;;;9.58;94.83105;928.4358;;;;
2022/09/30 02:39:11;;;;;;;1.8;1.7;;;;;;;9.59;94.70801;928.4008;;;;
2022/09/30 02:41:37;;;;;;;2.4;1.9;;;;;;;9.66;94.20898;928.4319;;;;
2022/09/30 02:44:01;;;;;;;1.9;1.7;;;;;;;9.65;94.26465;928.5042;;;;
2022/09/30 02:47:22;;;;;;;1.8;1.7;;;;;;;9.63;94.25879;928.4892;;;;
2022/09/30 02:49:47;;;;;;;2.4;2.1;;;;;;;9.66;94.31348;928.5519;;;;
2022/09/30 02:52:14;;;;;;;1.8;1.7;;;;;;;9.57;94.45117;928.575;;;;
2022/09/30 02:54:40;;;;;;;2.1;1.9;;;;;;;9.52;94.72461;928.5901;;;;
2022/09/30 02:57:05;;;;;;;2.6;1.8;;;;;;;9.5;94.9502;928.6696;;;;
2022/09/30 02:59:50;;;;;;;2.5;2;;;;;;;9.48;95.31055;928.7459;;;;
2022/09/30 03:02:14;;;;;;;2.1;1.9;;;;;;;9.54;95.4707;928.7625;;;;
2022/09/30 03:08:37;;;;;;;1.9;1.8;;;;;;;9.4;95.30469;928.7403;;;;
2022/09/30 03:11:05;;;;;;;3.2;2.1;;;;;;;9.29;96.08691;928.8024;;;;
2022/09/30 03:13:32;;;;;;;2.1;1.9;;;;;;;9.25;96.38574;928.7985;;;;
2022/09/30 03:15:58;;;;;;;2.7;2;;;;;;;9.24;96.31348;928.7659;;;;
2022/09/30 03:18:23;;;;;;;2.4;1.9;;;;;;;9.14;96.85059;928.7633;;;;
2022/09/30 03:21:26;;;;;;;1.8;1.7;;;;;;;9.08;96.9502;928.7395;;;;
2022/09/30 03:23:55;;;;;;;2.4;1.9;;;;;;;8.79;97.67969;928.8159;;;;
2022/09/30 03:26:20;;;;;;;2.7;2.1;;;;;;;8.87;98.11914;928.8265;;;;
2022/09/30 03:28:46;;;;;;;2;1.9;;;;;;;9.04;97.99902;928.7872;;;;
2022/09/30 03:31:12;;;;;;;2.4;2;;;;;;;9.16;97.46973;928.7863;;;;
2022/09/30 03:33:37;;;;;;;2.7;2.1;;;;;;;9.23;97.16699;928.7524;;;;
2022/09/30 03:36:02;;;;;;;2;1.9;;;;;;;9.29;96.94043;928.8301;;;;
2022/09/30 03:38:27;;;;;;;2.2;1.9;;;;;;;9.35;96.5332;928.8261;;;;
2022/09/30 03:41:29;;;;;;;2.3;2.1;;;;;;;9.42;96.17188;928.8414;;;;
2022/09/30 03:43:54;;;;;;;1.9;1.8;;;;;;;9.38;96.35742;928.8539;;;;
2022/09/30 03:46:20;;;;;;;2.7;2.2;;;;;;;9.39;96.62109;928.8563;;;;
2022/09/30 03:48:45;;;;;;;2.5;2.1;;;;;;;9.41;96.29688;928.8523;;;;
2022/09/30 03:51:11;;;;;;;2;1.8;;;;;;;9.38;96.15234;928.9055;;;;
2022/09/30 03:53:36;;;;;;;2.1;1.9;;;;;;;9.42;96.08105;928.8414;;;;
2022/09/30 03:56:01;;;;;;;1.9;1.7;;;;;;;9.42;95.89844;928.9511;;;;
2022/09/30 03:58:27;;;;;;;3.1;2.2;;;;;;;9.43;96.1875;928.9407;;;;
2022/09/30 04:02:36;;;;;;;3;1.8;;;;;;;9.45;96.33887;929.0058;;;;
2022/09/30 04:04:59;;;;;;;2.4;2.1;;;;;;;9.48;96.3457;928.9986;;;;
2022/09/30 04:11:04;;;;;;;2.4;2;;;;;;;9.5;95.38281;929.0073;;;;
2022/09/30 04:13:30;;;;;;;2.7;2.2;;;;;;;9.54;95.16309;929.0272;;;;
2022/09/30 04:15:55;;;;;;;2.3;2.1;;;;;;;9.54;94.92383;929.0383;;;;
2022/09/30 04:18:21;;;;;;;3.5;2.3;;;;;;;9.55;95.05371;929.0549;;;;
2022/09/30 04:20:47;;;;;;;4.8;2.5;;;;;;;9.54;95.23145;929.0264;;;;
2022/09/30 04:23:13;;;;;;;2.9;2.1;;;;;;;9.57;95.27148;929.1033;;;;
2022/09/30 04:25:39;;;;;;;3.6;3.2;;;;;;;9.56;95.28125;929.0454;;;;
2022/09/30 04:28:08;;;;;;;7.8;5.3;;;;;;;9.55;95.17676;929.0661;;;;
2022/09/30 04:30:39;;;;;;;4.5;4.1;;;;;;;9.55;95.1543;929.0986;;;;
2022/09/30 04:33:09;;;;;;;3.2;2.9;;;;;;;9.55;95.3252;929.1281;;;;
2022/09/30 04:35:34;;;;;;;1.8;1.5;;;;;;;9.57;95.24902;929.1478;;;;
2022/09/30 04:38:06;;;;;;;2;1.8;;;;;;;9.57;95.06641;929.1447;;;;
2022/09/30 04:40:28;;;;;;;1.5;1.4;;;;;;;9.47;95.27246;929.1202;;;;
2022/09/30 04:42:57;;;;;;;1.3;1.2;;;;;;;9.37;95.81055;929.1192;;;;
2022/09/30 04:45:28;;;;;;;2.4;1.4;;;;;;;9.33;95.86914;929.225;;;;
2022/09/30 04:47:53;;;;;;;1.8;1.7;;;;;;;9.31;95.8877;929.1789;;;;
2022/09/30 04:50:24;;;;;;;2.3;2.1;;;;;;;9.29;95.9502;929.2115;;;;
2022/09/30 04:52:55;;;;;;;2.6;2.1;;;;;;;9.34;95.88281;929.2154;;;;
2022/09/30 04:55:19;;;;;;;2.3;1.9;;;;;;;9.37;95.61523;929.2805;;;;
2022/09/30 04:57:44;;;;;;;2;1.8;;;;;;;9.28;95.83398;929.1733;;;;
2022/09/30 05:00:09;;;;;;;2.6;2.2;;;;;;;9.24;96.05176;929.2791;;;;
2022/09/30 05:02:36;;;;;;;3.5;2.1;;;;;;;9.3;96.15723;929.2869;;;;
2022/09/30 05:05:02;;;;;;;2.1;1.8;;;;;;;9.34;95.94824;929.3059;;;;
2022/09/30 05:08:07;;;;;;;1.9;1.8;;;;;;;9.25;96.4541;929.3823;;;;
2022/09/30 05:10:37;;;;;;;2;1.8;;;;;;;9.26;96.3877;929.3505;;;;
2022/09/30 05:13:02;;;;;;;2.1;1.9;;;;;;;9.27;96.64063;929.3767;;;;
2022/09/30 05:15:35;;;;;;;2.1;1.9;;;;;;;9.34;96.47461;929.3425;;;;
2022/09/30 05:18:05;;;;;;;2.6;2;;;;;;;9.43;96.0293;929.4246;;;;
2022/09/30 05:20:30;;;;;;;2.1;1.9;;;;;;;9.47;95.77344;929.4874;;;;
2022/09/30 05:22:57;;;;;;;2.2;2;;;;;;;9.44;95.28906;929.5795;;;;
2022/09/30 05:25:22;;;;;;;2.3;2.1;;;;;;;9.37;96.01367;929.58;;;;
2022/09/30 05:27:51;;;;;;;3.1;2.7;;;;;;;9.43;95.99316;929.6598;;;;
2022/09/30 05:30:16;;;;;;;3;2.7;;;;;;;9.51;95.8291;929.7431;;;;
2022/09/30 05:32:44;;;;;;;3.8;2.8;;;;;;;9.57;95.38574;929.6708;;;;
2022/09/30 05:35:10;;;;;;;3.4;2.4;;;;;;;9.64;95.18555;929.6448;;;;
2022/09/30 05:37:34;;;;;;;3.5;2.9;;;;;;;9.68;95.16113;929.663;;;;
2022/09/30 05:40:02;;;;;;;2.9;2.6;;;;;;;9.65;95.44922;929.7092;;;;
2022/09/30 05:42:27;;;;;;;3.7;2.8;;;;;;;9.7;95.37988;929.6917;;;;
2022/09/30 05:44:53;;;;;;;3.7;3.1;;;;;;;9.64;95.31055;929.799;;;;
2022/09/30 05:47:18;;;;;;;3.7;3.1;;;;;;;9.69;95.33398;929.7791;;;;
2022/09/30 05:49:45;;;;;;;3.8;3;;;;;;;9.77;94.96191;929.8131;;;;
2022/09/30 05:52:10;;;;;;;3.1;2.8;;;;;;;9.81;94.58301;929.8203;;;;
2022/09/30 05:54:35;;;;;;;3.4;3.1;;;;;;;9.78;94.875;929.864;;;;
2022/09/30 05:57:03;;;;;;;3.6;2.8;;;;;;;9.85;94.54688;929.8627;;;;
2022/09/30 05:59:29;;;;;;;3;2.7;;;;;;;9.89;94.48828;929.8275;;;;
2022/09/30 06:01:54;;;;;;;3.2;2.5;;;;;;;10.01;94.28418;929.883;;;;
2022/09/30 06:04:24;;;;;;;2.4;2.2;;;;;;;10.09;93.59668;930.0159;;;;
2022/09/30 06:07:12;;;;;;;2.5;2.3;;;;;;;10.13;92.71484;930.0762;;;;
2022/09/30 06:14:53;;;;;;;4;2.7;;;;;;;10.2;93.24414;930.1596;;;;
2022/09/30 06:17:18;;;;;;;3.3;3;;;;;;;10.23;92.85059;930.1307;;;;
2022/09/30 06:19:44;;;;;;;4;2.8;;;;;;;10.39;92.57715;930.2385;;;;
2022/09/30 06:22:09;;;;;;;3.3;3;;;;;;;10.39;91.58203;930.3101;;;;
2022/09/30 06:24:36;;;;;;;2.9;2.6;;;;;;;10.34;91.83691;930.3468;;;;
2022/09/30 06:27:01;;;;;;;3.6;3.3;;;;;;;10.37;91.27148;930.3524;;;;
2022/09/30 06:29:30;;;;;;;3.3;2.9;;;;;;;10.42;91.53418;930.3954;;;;
2022/09/30 06:31:55;;;;;;;4;3;;;;;;;10.44;91.54785;930.3619;;;;
2022/09/30 06:34:22;;;;;;;2.9;2.7;;;;;;;10.59;91.34277;930.3876;;;;
2022/09/30 06:36:46;;;;;;;3.2;2.9;;;;;;;10.76;91.0459;930.3984;;;;
2022/09/30 06:39:16;;;;;;;3.1;2.8;;;;;;;10.89;90.375;930.3624;;;;
2022/09/30 06:41:42;;;;;;;3.9;3.4;;;;;;;10.98;89.05859;930.366;;;;
2022/09/30 06:44:06;;;;;;;2.9;2.6;;;;;;;10.99;88.86621;930.3738;;;;
2022/09/30 06:46:33;;;;;;;2.9;2.6;;;;;;;11.05;88.7627;930.3395;;;;
2022/09/30 06:49:30;;;;;;;2.7;2.5;;;;;;;10.9;89.81934;930.3783;;;;
2022/09/30 06:51:55;;;;;;;2.7;2.5;;;;;;;10.55;90.4541;930.4205;;;;
2022/09/30 06:54:21;;;;;;;3.1;2.8;;;;;;;10.4;92.16992;930.3928;;;;
2022/09/30 06:56:47;;;;;;;3;2.8;;;;;;;10.63;91.73828;930.4316;;;;
2022/09/30 06:59:14;;;;;;;2.8;2.6;;;;;;;10.52;91.30273;930.524;;;;
2022/09/30 07:01:38;;;;;;;3.9;3.5;;;;;;;10.5;91.62012;930.5233;;;;
2022/09/30 07:04:08;;;;;;;3.8;3.5;;;;;;;10.64;91.95508;930.4642;;;;
2022/09/30 07:06:58;;;;;;;4.1;3.4;;;;;;;10.6;91.19434;930.3423;;;;
2022/09/30 07:09:24;;;;;;;3.3;3;;;;;;;10.75;91.13281;930.4192;;;;
2022/09/30 07:11:50;;;;;;;3.1;2.8;;;;;;;10.88;89.39063;930.399;;;;
2022/09/30 07:14:16;;;;;;;2.8;2.6;;;;;;;10.53;91.20313;930.4356;;;;
2022/09/30 07:16:44;;;;;;;3;2.7;;;;;;;10.78;90.62695;930.5123;;;;
2022/09/30 07:19:09;;;;;;;3.3;3;;;;;;;10.69;90.13965;930.5285;;;;
2022/09/30 07:21:37;;;;;;;3.7;3.4;;;;;;;10.89;90.83398;930.5894;;;;
2022/09/30 07:24:02;;;;;;;3.5;2.9;;;;;;;10.79;90.71973;930.6062;;;;
2022/09/30 07:26:27;;;;;;;2.9;2.7;;;;;;;10.82;89.69727;930.6573;;;;
2022/09/30 07:28:52;;;;;;;3.2;2.9;;;;;;;10.76;90.05176;930.5991;;;;
2022/09/30 07:31:30;;;;;;;2.6;2.4;;;;;;;10.63;89.55664;930.7517;;;;
2022/09/30 07:33:58;;;;;;;3;2.7;;;;;;;10.42;91.38574;930.7862;;;;
2022/09/30 07:36:26;;;;;;;3;2.2;;;;;;;10.28;91.5498;930.8275;;;;
2022/09/30 07:38:50;;;;;;;2.5;2.3;;;;;;;10.32;91.85352;930.7614;;;;
2022/09/30 07:41:18;;;;;;;2.3;2.1;;;;;;;10.67;91.83789;930.7285;;;;
2022/09/30 07:43:43;;;;;;;2.3;1.9;;;;;;;10.96;89.5459;930.7189;;;;
2022/09/30 07:46:09;;;;;;;2.7;2;;;;;;;11.32;88.77246;930.7455;;;;
2022/09/30 07:48:42;;;;;;;2.3;2.1;;;;;;;11.69;86.46875;930.6934;;;;
2022/09/30 07:51:04;;;;;;;2.3;2.1;;;;;;;11.83;84.27246;930.7011;;;;
2022/09/30 07:53:33;;;;;;;2.5;2.1;;;;;;;11.99;85.89648;930.7932;;;;
2022/09/30 07:55:58;;;;;;;1.7;1.6;;;;;;;12.51;82.73145;930.7037;;;;
2022/09/30 07:58:23;;;;;;;1.7;1.6;;;;;;;12.59;81.23242;930.6838;;;;
2022/09/30 08:00:51;;;;;;;1.9;1.6;;;;;;;12.83;81.32227;930.6721;;;;
2022/09/30 08:03:15;;;;;;;1.7;1.6;;;;;;;13.26;78.62305;930.8308;;;;
2022/09/30 08:05:43;;;;;;;1.6;1.5;;;;;;;13.58;75.01367;930.7547;;;;
2022/09/30 08:08:07;;;;;;;1.9;1.7;;;;;;;13.46;75.56641;930.8524;;;;
2022/09/30 08:10:33;;;;;;;3;1.6;;;;;;;12.9;78.69531;930.8709;;;;
2022/09/30 08:12:59;;;;;;;1.8;1.7;;;;;;;12.16;80.62402;930.882;;;;
2022/09/30 08:15:31;;;;;;;2;1.8;;;;;;;12.41;80.55859;930.9131;;;;
2022/09/30 08:17:56;;;;;;;2.1;1.9;;;;;;;13.28;82.0752;931.008;;;;
2022/09/30 08:20:23;;;;;;;2.2;1.8;;;;;;;14.19;74.50586;930.948;;;;
2022/09/30 08:22:48;;;;;;;1.8;1.7;;;;;;;14.18;73.27246;930.8672;;;;
2022/09/30 08:25:18;;;;;;;1.8;1.7;;;;;;;14.84;71.55176;930.8563;;;;
2022/09/30 08:27:48;;;;;;;1.7;1.5;;;;;;;14.51;73.49023;930.9506;;;;
2022/09/30 08:33:15;;;;;;;3.2;1.7;;;;;;;14.61;70.60449;930.9713;;;;
2022/09/30 08:35:46;;;;;;;1.6;1.5;;;;;;;14.11;73.07617;930.8572;;;;
2022/09/30 08:38:11;;;;;;;2.7;1.6;;;;;;;14.27;72.65723;930.9701;;;;
2022/09/30 08:40:43;;;;;;;1.7;1.6;;;;;;;13.83;71.8916;931.0277;;;;
2022/09/30 08:43:09;;;;;;;1.9;1.8;;;;;;;13.56;72.86035;931.0021;;;;
2022/09/30 08:45:33;;;;;;;1.6;1.5;;;;;;;12.99;77.55078;931.0889;;;;
2022/09/30 08:47:59;;;;;;;1.7;1.6;;;;;;;12.98;78.49219;931.1769;;;;
2022/09/30 08:50:25;;;;;;;3;1.6;;;;;;;12.94;76.99316;931.1342;;;;
2022/09/30 08:52:50;;;;;;;1.8;1.5;;;;;;;13.18;78.55078;931.0993;;;;
2022/09/30 08:55:15;;;;;;;1.5;1.4;;;;;;;13.27;76.68262;931.1544;;;;
2022/09/30 08:57:42;;;;;;;1.6;1.5;;;;;;;13.28;77.23633;931.1519;;;;
2022/09/30 09:00:09;;;;;;;1.7;1.6;;;;;;;13.54;74.9834;931.1552;;;;
2022/09/30 09:02:31;;;;;;;1.3;1.2;;;;;;;14.2;74.03711;931.2168;;;;
2022/09/30 09:04:56;;;;;;;1.6;1.5;;;;;;;13.91;75.12695;931.2625;;;;
2022/09/30 09:07:26;;;;;;;1.7;1.6;;;;;;;13.22;77.18066;931.2493;;;;
2022/09/30 09:09:52;;;;;;;2;1.9;;;;;;;13.08;77.71777;931.2784;;;;
2022/09/30 09:12:21;;;;;;;1.9;1.8;;;;;;;13.24;78.67676;931.2818;;;;
2022/09/30 09:14:45;;;;;;;3.9;2.2;;;;;;;13.03;79.05176;931.2678;;;;
2022/09/30 09:17:15;;;;;;;1.6;1.5;;;;;;;12.93;76.81738;931.3492;;;;
2022/09/30 09:19:40;;;;;;;1.7;1.5;;;;;;;12.93;78.6543;931.3764;;;;
2022/09/30 09:22:05;;;;;;;2.1;1.9;;;;;;;12.85;79.37598;931.4141;;;;
2022/09/30 09:24:31;;;;;;;3.1;1.9;;;;;;;12.75;80.34473;931.4547;;;;
2022/09/30 09:26:57;;;;;;;1.5;1.4;;;;;;;12.46;80.32422;931.4963;;;;
2022/09/30 09:29:22;;;;;;;2.1;1.9;;;;;;;12.06;82.64551;931.514;;;;
2022/09/30 09:31:47;;;;;;;3.1;1.8;;;;;;;12.12;83.87207;931.5424;;;;
2022/09/30 09:34:12;;;;;;;1.7;1.6;;;;;;;12.29;83.29785;931.5405;;;;
2022/09/30 09:36:41;;;;;;;1.8;1.7;;;;;;;12.42;82.02637;931.5893;;;;
2022/09/30 09:39:07;;;;;;;1.6;1.5;;;;;;;12.7;80.94336;931.6078;;;;
2022/09/30 09:41:32;;;;;;;1.6;1.5;;;;;;;12.57;80.10547;931.6542;;;;
2022/09/30 09:43:59;;;;;;;1.6;1.5;;;;;;;12.24;81.63672;931.7294;;;;
2022/09/30 09:46:23;;;;;;;1.7;1.6;;;;;;;12.37;82.09668;931.7451;;;;
2022/09/30 09:48:47;;;;;;;2.3;1.3;;;;;;;12.26;81.54883;931.7692;;;;
2022/09/30 09:51:13;;;;;;;1.5;1.4;;;;;;;12.07;83.08301;931.7231;;;;
2022/09/30 09:53:38;;;;;;;3.4;1.5;;;;;;;12.13;83.90625;931.7665;;;;
2022/09/30 09:56:06;;;;;;;1.6;1.5;;;;;;;12.31;81.97168;931.7662;;;;
2022/09/30 09:58:33;;;;;;;1.8;1.5;;;;;;;12.21;81.79199;931.7328;;;;
2022/09/30 10:01:10;;;;;;;1.8;1.3;;;;;;;12.27;81.87109;931.7738;;;;
2022/09/30 10:03:22;;;;;;;2.9;1.3;;;;;;;11.99;82.2207;931.772;;;;
2022/09/30 10:05:50;;;;;;;1.3;1.2;;;;;;;12.1;82.79004;931.7748;;;;
2022/09/30 10:08:15;;;;;;;1.3;1.2;;;;;;;11.88;84.19141;931.7321;;;;
2022/09/30 10:10:44;;;;;;;1.5;1.4;;;;;;;12.02;84.5752;931.6915;;;;
2022/09/30 10:13:09;;;;;;;1.5;1.4;;;;;;;11.82;84.80957;931.8672;;;;
2022/09/30 10:15:38;;;;;;;1.4;1.3;;;;;;;;;;;;;
2022/09/30 10:18:03;;;;;;;1.4;1.3;;;;;;;;;;;;;
2022/09/30 10:20:28;;;;;;;1.7;1.6;;;;;;;;;;;;;
2022/09/30 10:22:53;;;;;;;1.4;1.3;;;;;;;;;;;;;
2022/09/30 10:25:18;;;;;;;1.9;1.3;;;;;;;;;;;;;
2022/09/30 10:27:44;;;;;;;1.4;1.3;;;;;;;;;;;;;
2022/09/30 10:30:09;;;;;;;1.5;1.4;;;;;;;;;;;;;
2022/09/30 10:32:35;;;;;;;1.8;1.4;;;;;;;;;;;;;
2022/09/30 10:35:02;;;;;;;1.2;1.1;;;;;;;;;;;;;
2022/09/30 10:37:27;;;;;;;2.1;1.2;;;;;;;;;;;;;
2022/09/30 10:39:52;;;;;;;1.6;1.3;;;;;;;;;;;;;
2022/09/30 10:42:17;;;;;;;1.9;1.7;;;;;;;;;;;;;
2022/09/30 10:44:43;;;;;;;1.9;1.6;;;;;;;;;;;;;
2022/09/30 10:47:08;;;;;;;1.5;1.4;;;;;;;;;;;;;
2022/09/30 10:49:35;;;;;;;1.7;1.6;;;;;;;;;;;;;
2022/09/30 10:52:00;;;;;;;1.9;1.7;;;;;;;;;;;;;
2022/09/30 10:54:25;;;;;;;1.6;1.5;;;;;;;;;;;;;
2022/09/30 10:56:53;;;;;;;1.7;1.6;;;;;;;;;;;;;
2022/09/30 10:59:18;;;;;;;1.9;1.8;;;;;;;;;;;;;
2022/09/30 11:01:43;;;;;;;1.8;1.7;;;;;;;;;;;;;
2022/09/30 11:04:10;;;;;;;1.7;1.6;;;;;;;;;;;;;
2022/09/30 11:06:36;;;;;;;2;1.6;;;;;;;;;;;;;
2022/09/30 11:09:01;;;;;;;1.5;1.4;;;;;;;;;;;;;
2022/09/30 11:11:26;;;;;;;1;1;;;;;;;;;;;;;
2022/09/30 11:13:53;;;;;;;1.8;1.4;;;;;;;;;;;;;
2022/09/30 11:16:17;;;;;;;1.4;1.3;;;;;;;;;;;;;
2022/09/30 11:18:42;;;;;;;1.2;1.1;;;;;;;;;;;;;
2022/09/30 11:21:07;;;;;;;1.3;1.2;;;;;;;;;;;;;
2022/09/30 11:23:32;;;;;;;1.3;1.2;;;;;;;;;;;;;
2022/09/30 11:25:57;;;;;;;1.4;1.1;;;;;;;;;;;;;
2022/09/30 11:28:22;;;;;;;0.9;0.9;;;;;;;;;;;;;
2022/09/30 11:30:48;;;;;;;1.2;1.1;;;;;;;;;;;;;
2022/09/30 11:33:12;;;;;;;0.9;0.9;;;;;;;;;;;;;
2022/09/30 11:35:40;;;;;;;1.1;1;;;;;;;;;;;;;
2022/09/30 11:38:02;;;;;;;1;0.9;;;;;;;;;;;;;
2022/09/30 11:40:28;;;;;;;1.3;1.2;;;;;;;;;;;;;
2022/09/30 11:42:53;;;;;;;1.2;1;;;;;;;;;;;;;
2022/09/30 11:45:18;;;;;;;1;0.9;;;;;;;;;;;;;
2022/09/30 11:47:43;;;;;;;2.1;1.3;;;;;;;;;;;;;
2022/09/30 11:50:09;;;;;;;0.9;0.9;;;;;;;;;;;;;
2022/09/30 11:52:34;;;;;;;0.8;0.8;;;;;;;;;;;;;
2022/09/30 11:54:59;;;;;;;1.1;1;;;;;;;;;;;;;
2022/09/30 11:57:24;;;;;;;1.1;1;;;;;;;;;;;;;
2022/09/30 11:59:49;;;;;;;1.1;0.9;;;;;;;;;;;;;
2022/09/30 12:02:14;;;;;;;3.2;1.1;;;;;;;;;;;;;
2022/09/30 12:04:40;;;;;;;1.2;1;;;;;;;;;;;;;
2022/09/30 12:07:05;;;;;;;1.1;1;;;;;;;;;;;;;
2022/09/30 12:09:30;;;;;;;1;1;;;;;;;;;;;;;
2022/09/30 12:11:56;;;;;;;1.4;1;;;;;;;;;;;;;
2022/09/30 12:14:21;;;;;;;1.1;1;;;;;;;;;;;;;
2022/09/30 12:16:50;;;;;;;0.9;0.9;;;;;;;;;;;;;
2022/09/30 12:19:13;;;;;;;0.7;0.7;;;;;;;;;;;;;
2022/09/30 12:21:39;;;;;;;1.2;1.1;;;;;;;;;;;;;
2022/09/30 12:24:04;;;;;;;1;1;;;;;;;;;;;;;
2022/09/30 12:26:29;;;;;;;1;1;;;;;;;;;;;;;
2022/09/30 12:31:19;;;;;;;1.9;0.9;;;;;;;;;;;;;
2022/09/30 12:33:46;;;;;;;1.1;1;;;;;;;;;;;;;
2022/09/30 12:36:12;;;;;;;1.6;1.2;;;;;;;;;;;;;
2022/09/30 12:38:36;;;;;;;1.3;1.2;;;;;;;;;;;;;
2022/09/30 12:41:02;;;;;;;1;1;;;;;;;;;;;;;
2022/09/30 12:43:27;;;;;;;1.2;1.1;;;;;;;;;;;;;
2022/09/30 12:45:53;;;;;;;1.3;1.2;;;;;;;;;;;;;
2022/09/30 12:48:20;;;;;;;1;1;;;;;;;;;;;;;
2022/09/30 12:50:44;;;;;;;1.5;1.1;;;;;;;;;;;;;
2022/09/30 12:53:10;;;;;;;1.4;1.1;;;;;;;;;;;;;
2022/09/30 12:55:35;;;;;;;1;0.9;;;;;;;;;;;;;
2022/09/30 12:58:01;;;;;;;1;1;;;;;;;;;;;;;
2022/09/30 13:00:25;;;;;;;1.2;1.1;;;;;;;;;;;;;
2022/09/30 13:02:50;;;;;;;1;1;;;;;;;;;;;;;
2022/09/30 13:05:16;;;;;;;0.9;0.9;;;;;;;;;;;;;
2022/09/30 13:07:40;;;;;;;0.9;0.9;;;;;;;;;;;;;
2022/09/30 13:10:06;;;;;;;0.9;0.9;;;;;;;;;;;;;
2022/09/30 13:12:31;;;;;;;0.9;0.9;;;;;;;;;;;;;
2022/09/30 13:14:56;;;;;;;1;0.9;;;;;;;;;;;;;
2022/09/30 13:17:21;;;;;;;0.8;0.8;;;;;;;;;;;;;
2022/09/30 13:19:47;;;;;;;1.6;1;;;;;;;;;;;;;
2022/09/30 13:22:12;;;;;;;1.2;1.1;;;;;;;;;;;;;
2022/09/30 13:24:39;;;;;;;1.1;1;;;;;;;;;;;;;
2022/09/30 13:27:04;;;;;;;0.9;0.9;;;;;;;;;;;;;
2022/09/30 13:29:30;;;;;;;0.6;0.6;;;;;;;;;;;;;
2022/09/30 13:31:55;;;;;;;0.6;0.6;;;;;;;;;;;;;
2022/09/30 13:34:20;;;;;;;0.7;0.7;;;;;;;;;;;;;
2022/09/30 13:36:45;;;;;;;1.2;1.1;;;;;;;;;;;;;
2022/09/30 13:39:10;;;;;;;0.6;0.6;;;;;;;;;;;;;
2022/09/30 13:41:35;;;;;;;0.6;0.6;;;;;;;;;;;;;
2022/09/30 13:44:01;;;;;;;0.7;0.7;;;;;;;;;;;;;
2022/09/30 13:46:26;;;;;;;1.4;0.5;;;;;;;;;;;;;
2022/09/30 13:48:53;;;;;;;0.5;0.5;;;;;;;;;;;;;
2022/09/30 13:51:18;;;;;;;1;0.8;;;;;;;;;;;;;
2022/09/30 13:53:44;;;;;;;1.1;0.7;;;;;;;;;;;;;
2022/09/30 13:56:10;;;;;;;0.7;0.7;;;;;;;;;;;;;
2022/09/30 13:58:35;;;;;;;0.6;0.6;;;;;;;;;;;;;
2022/09/30 14:01:00;;;;;;;1.3;0.8;;;;;;;;;;;;;
2022/09/30 14:03:27;;;;;;;0.8;0.7;;;;;;;;;;;;;
2022/09/30 14:05:53;;;;;;;1.6;1.2;;;;;;;;;;;;;
2022/09/30 14:08:18;;;;;;;0.7;0.7;;;;;;;;;;;;;
2022/09/30 14:10:43;;;;;;;0.7;0.7;;;;;;;;;;;;;
2022/09/30 14:13:08;;;;;;;3.5;2.6;;;;;;;;;;;;;
2022/09/30 14:15:33;;;;;;;1.3;1.2;;;;;;;;;;;;;
2022/09/30 14:17:58;;;;;;;1.4;1.3;;;;;;;;;;;;;
2022/09/30 14:20:23;;;;;;;1.6;1.1;;;;;;;;;;;;;
2022/09/30 14:22:48;;;;;;;0.8;0.6;;;;;;;;;;;;;
2022/09/30 14:25:14;;;;;;;0.5;0.5;;;;;;;;;;;;;
2022/09/30 14:27:39;;;;;;;1.3;1.2;;;;;;;;;;;;;
2022/09/30 14:30:04;;;;;;;0.7;0.7;;;;;;;;;;;;;
2022/09/30 14:32:29;;;;;;;0.8;0.7;;;;;;;;;;;;;
2022/09/30 14:34:54;;;;;;;0.5;0.5;;;;;;;;;;;;;
2022/09/30 14:37:20;;;;;;;1.3;0.6;;;;;;;;;;;;;
2022/09/30 14:39:45;;;;;;;1.1;1;;;;;;;;;;;;;
2022/09/30 14:42:10;;;;;;;1.3;1.2;;;;;;;;;;;;;
2022/09/30 14:44:37;;;;;;;1.1;0.8;;;;;;;;;;;;;
2022/09/30 14:47:02;;;;;;;1.7;1.5;;;;;;;;;;;;;
2022/09/30 14:49:31;;;;;;;1.5;1;;;;;;;;;;;;;
2022/09/30 14:52:02;;;;;;;1;0.6;;;;;;;;;;;;;
2022/09/30 14:54:21;;;;;;;0.8;0.8;;;;;;;;;;;;;
2022/09/30 14:56:47;;;;;;;9.3;4.8;;;;;;;;;;;;;
2022/09/30 14:59:13;;;;;;;2.6;1.8;;;;;;;;;;;;;
2022/09/30 15:01:40;;;;;;;4.8;2.3;;;;;;;;;;;;;
2022/09/30 15:04:07;;;;;;;1.6;1.5;;;;;;;;;;;;;
2022/09/30 15:06:30;;;;;;;1.2;1.1;;;;;;;;;;;;;
2022/09/30 15:08:56;;;;;;;0.9;0.8;;;;;;;;;;;;;
2022/09/30 15:11:21;;;;;;;1;0.7;;;;;;;;;;;;;
2022/09/30 15:13:47;;;;;;;1.5;0.9;;;;;;;;;;;;;
2022/09/30 15:16:13;;;;;;;0.7;0.7;;;;;;;;;;;;;
2022/09/30 15:18:38;;;;;;;0.7;0.7;;;;;;;;;;;;;
2022/09/30 15:21:04;;;;;;;0.9;0.9;;;;;;;;;;;;;
2022/09/30 15:23:29;;;;;;;0.7;0.7;;;;;;;;;;;;;
2022/09/30 15:25:56;;;;;;;1.4;1.1;;;;;;;;;;;;;
2022/09/30 15:28:20;;;;;;;1.1;1;;;;;;;;;;;;;
2022/09/30 15:30:46;;;;;;;0.8;0.8;;;;;;;;;;;;;
2022/09/30 15:33:11;;;;;;;1;0.7;;;;;;;;;;;;;
2022/09/30 15:35:37;;;;;;;0.7;0.7;;;;;;;;;;;;;
2022/09/30 15:38:02;;;;;;;0.8;0.8;;;;;;;;;;;;;
2022/09/30 15:42:52;;;;;;;0.8;0.8;;;;;;;;;;;;;
2022/09/30 15:45:17;;;;;;;1.7;1.4;;;;;;;;;;;;;
2022/09/30 15:47:42;;;;;;;1.3;1;;;;;;;;;;;;;
2022/09/30 15:50:07;;;;;;;1.6;1.5;;;;;;;;;;;;;
2022/09/30 15:52:35;;;;;;;2;1.7;;;;;;;;;;;;;
2022/09/30 15:54:58;;;;;;;2.5;2.3;;;;;;;;;;;;;
2022/09/30 15:57:24;;;;;;;2.8;1.8;;;;;;;;;;;;;
2022/09/30 15:59:49;;;;;;;2.3;2.1;;;;;;;;;;;;;
2022/09/30 16:02:15;;;;;;;4.3;3.7;;;;;;;;;;;;;
2022/09/30 16:04:42;;;;;;;2.5;2.3;;;;;;;;;;;;;
2022/09/30 16:07:08;;;;;;;1.1;1.1;;;;;;;;;;;;;
2022/09/30 16:09:34;;;;;;;2.2;1.4;;;;;;;;;;;;;
2022/09/30 16:12:00;;;;;;;1;1;;;;;;;;;;;;;
2022/09/30 16:14:25;;;;;;;1.2;0.9;;;;;;;;;;;;;
2022/09/30 16:16:51;;;;;;;1.2;0.9;;;;;;;;;;;;;
2022/09/30 16:19:16;;;;;;;1;1;;;;;;;;;;;;;
2022/09/30 16:21:46;;;;;;;1.3;1;;;;;;;;;;;;;
2022/09/30 16:24:07;;;;;;;1.1;1;;;;;;;;;;;;;
2022/09/30 16:26:32;;;;;;;1.5;1.3;;;;;;;;;;;;;
2022/09/30 16:29:02;;;;;;;3.8;2.3;;;;;;;;;;;;;
2022/09/30 16:31:24;;;;;;;1.6;1.5;;;;;;;;;;;;;
2022/09/30 16:33:50;;;;;;;1.2;1.1;;;;;;;;;;;;;
2022/09/30 16:36:14;;;;;;;2.8;1.6;;;;;;;;;;;;;
2022/09/30 16:38:42;;;;;;;3;1.2;;;;;;;;;;;;;
2022/09/30 16:41:07;;;;;;;2.4;1.8;;;;;;;;;;;;;
2022/09/30 16:43:33;;;;;;;1.6;1.5;;;;;;;;;;;;;
2022/09/30 16:45:58;;;;;;;1.5;1.4;;;;;;;;;;;;;
2022/09/30 16:48:25;;;;;;;2.9;1.9;;;;;;;;;;;;;
2022/09/30 16:50:50;;;;;;;1.9;1.8;;;;;;;;;;;;;